sensor_id;sensor_type;location;lat;lon;timestamp;temperature;humidity
4505;DHT22;2265;48.794;9.520;2023-12-14T00:01:15;7.30;98.00
4505;DHT22;2265;48.794;9.520;2023-12-14T00:03:42;7.40;98.00
4505;DHT22;2265;48.794;9.520;2023-12-14T00:06:10;7.50;98.00
4505;DHT22;2265;48.794;9.520;2023-12-14T00:08:38;7.50;98.00
4505;DHT22;2265;48.794;9.520;2023-12-14T00:11:05;7.40;98.00
4505;DHT22;2265;48.794;9.520;2023-12-14T00:13:33;7.50;98.00
4505;DHT22;2265;48.794;9.520;2023-12-14T00:16:00;7.50;98.00
4505;DHT22;2265;48.794;9.520;2023-12-14T00:18:29;7.50;98.00
4505;DHT22;2265;48.794;9.520;2023-12-14T00:20:56;7.60;98.00
4505;DHT22;2265;48.794;9.520;2023-12-14T00:23:26;7.40;98.00
4505;DHT22;2265;48.794;9.520;2023-12-14T00:25:53;7.40;98.00
4505;DHT22;2265;48.794;9.520;2023-12-14T00:28:21;7.40;98.00
4505;DHT22;2265;48.794;9.520;2023-12-14T00:30:49;7.50;98.00
4505;DHT22;2265;48.794;9.520;2023-12-14T00:33:17;7.60;98.00
4505;DHT22;2265;48.794;9.520;2023-12-14T00:35:45;7.50;98.00
4505;DHT22;2265;48.794;9.520;2023-12-14T00:38:13;7.60;98.00
4505;DHT22;2265;48.794;9.520;2023-12-14T00:40:40;7.50;98.00
4505;DHT22;2265;48.794;9.520;2023-12-14T00:43:07;7.40;98.00
4505;DHT22;2265;48.794;9.520;2023-12-14T00:45:34;7.40;98.00
4505;DHT22;2265;48.794;9.520;2023-12-14T00:48:01;7.50;98.00
4505;DHT22;2265;48.794;9.520;2023-12-14T00:50:28;7.40;98.00
4505;DHT22;2265;48.794;9.520;2023-12-14T00:52:56;7.50;98.00
4505;DHT22;2265;48.794;9.520;2023-12-14T00:55:23;7.40;98.00
4505;DHT22;2265;48.794;9.520;2023-12-14T00:57:50;7.40;98.00
4505;DHT22;2265;48.794;9.520;2023-12-14T01:00:18;7.50;98.00
4505;DHT22;2265;48.794;9.520;2023-12-14T01:02:45;7.40;98.00
4505;DHT22;2265;48.794;9.520;2023-12-14T01:05:12;7.50;98.00
4505;DHT22;2265;48.794;9.520;2023-12-14T01:07:39;7.50;98.00
4505;DHT22;2265;48.794;9.520;2023-12-14T01:10:09;7.50;98.00
4505;DHT22;2265;48.794;9.520;2023-12-14T01:12:36;7.60;98.00
4505;DHT22;2265;48.794;9.520;2023-12-14T01:15:05;7.70;98.00
4505;DHT22;2265;48.794;9.520;2023-12-14T01:17:32;7.60;98.00
4505;DHT22;2265;48.794;9.520;2023-12-14T01:20:04;7.50;98.00
4505;DHT22;2265;48.794;9.520;2023-12-14T01:22:32;7.40;98.00
4505;DHT22;2265;48.794;9.520;2023-12-14T01:24:59;7.50;98.00
4505;DHT22;2265;48.794;9.520;2023-12-14T01:27:27;7.40;98.00
4505;DHT22;2265;48.794;9.520;2023-12-14T01:29:54;7.30;98.00
4505;DHT22;2265;48.794;9.520;2023-12-14T01:32:21;7.30;98.00
4505;DHT22;2265;48.794;9.520;2023-12-14T01:34:48;7.30;98.00
4505;DHT22;2265;48.794;9.520;2023-12-14T01:37:15;7.20;98.00
4505;DHT22;2265;48.794;9.520;2023-12-14T01:39:42;7.30;98.00
4505;DHT22;2265;48.794;9.520;2023-12-14T01:42:09;7.30;98.00
4505;DHT22;2265;48.794;9.520;2023-12-14T01:44:39;7.40;98.00
4505;DHT22;2265;48.794;9.520;2023-12-14T01:47:06;7.40;98.00
4505;DHT22;2265;48.794;9.520;2023-12-14T01:49:34;7.40;98.00
4505;DHT22;2265;48.794;9.520;2023-12-14T01:52:01;7.40;98.00
4505;DHT22;2265;48.794;9.520;2023-12-14T01:54:28;7.40;98.00
4505;DHT22;2265;48.794;9.520;2023-12-14T01:56:55;7.40;98.00
4505;DHT22;2265;48.794;9.520;2023-12-14T01:59:22;7.70;98.00
4505;DHT22;2265;48.794;9.520;2023-12-14T02:01:56;7.80;98.00
4505;DHT22;2265;48.794;9.520;2023-12-14T02:04:24;7.80;98.00
4505;DHT22;2265;48.794;9.520;2023-12-14T02:06:51;7.70;98.00
4505;DHT22;2265;48.794;9.520;2023-12-14T02:09:18;7.60;98.00
4505;DHT22;2265;48.794;9.520;2023-12-14T02:11:45;7.40;98.00
4505;DHT22;2265;48.794;9.520;2023-12-14T02:14:12;7.20;98.00
4505;DHT22;2265;48.794;9.520;2023-12-14T02:16:39;7.20;98.00
4505;DHT22;2265;48.794;9.520;2023-12-14T02:19:09;7.20;98.00
4505;DHT22;2265;48.794;9.520;2023-12-14T02:21:36;7.20;98.00
4505;DHT22;2265;48.794;9.520;2023-12-14T02:24:05;7.20;98.00
4505;DHT22;2265;48.794;9.520;2023-12-14T02:26:33;7.20;98.00
4505;DHT22;2265;48.794;9.520;2023-12-14T02:29:00;7.20;98.00
4505;DHT22;2265;48.794;9.520;2023-12-14T02:31:28;7.30;98.00
4505;DHT22;2265;48.794;9.520;2023-12-14T02:33:58;7.30;98.00
4505;DHT22;2265;48.794;9.520;2023-12-14T02:36:27;7.20;98.00
4505;DHT22;2265;48.794;9.520;2023-12-14T02:38:54;7.10;98.00
4505;DHT22;2265;48.794;9.520;2023-12-14T02:41:23;7.00;98.00
4505;DHT22;2265;48.794;9.520;2023-12-14T02:43:50;7.10;98.00
4505;DHT22;2265;48.794;9.520;2023-12-14T02:46:17;7.40;98.00
4505;DHT22;2265;48.794;9.520;2023-12-14T02:48:44;7.50;98.00
4505;DHT22;2265;48.794;9.520;2023-12-14T02:51:14;7.50;98.00
4505;DHT22;2265;48.794;9.520;2023-12-14T02:53:42;7.30;98.00
4505;DHT22;2265;48.794;9.520;2023-12-14T02:56:09;7.20;98.00
4505;DHT22;2265;48.794;9.520;2023-12-14T02:58:39;7.10;98.00
4505;DHT22;2265;48.794;9.520;2023-12-14T03:01:06;7.10;98.00
4505;DHT22;2265;48.794;9.520;2023-12-14T03:03:38;7.10;98.00
4505;DHT22;2265;48.794;9.520;2023-12-14T03:06:05;7.00;98.00
4505;DHT22;2265;48.794;9.520;2023-12-14T03:08:32;7.00;98.00
4505;DHT22;2265;48.794;9.520;2023-12-14T03:10:58;7.10;98.00
4505;DHT22;2265;48.794;9.520;2023-12-14T03:13:25;7.10;98.00
4505;DHT22;2265;48.794;9.520;2023-12-14T03:15:55;7.10;98.00
4505;DHT22;2265;48.794;9.520;2023-12-14T03:18:22;7.20;98.00
4505;DHT22;2265;48.794;9.520;2023-12-14T03:20:49;7.20;98.00
4505;DHT22;2265;48.794;9.520;2023-12-14T03:23:18;7.20;98.00
4505;DHT22;2265;48.794;9.520;2023-12-14T03:25:45;7.20;98.00
4505;DHT22;2265;48.794;9.520;2023-12-14T03:28:12;7.30;98.00
4505;DHT22;2265;48.794;9.520;2023-12-14T03:30:40;7.30;98.00
4505;DHT22;2265;48.794;9.520;2023-12-14T03:33:09;7.20;98.00
4505;DHT22;2265;48.794;9.520;2023-12-14T03:35:36;7.20;98.00
4505;DHT22;2265;48.794;9.520;2023-12-14T03:38:03;7.20;98.00
4505;DHT22;2265;48.794;9.520;2023-12-14T03:40:30;7.30;98.00
4505;DHT22;2265;48.794;9.520;2023-12-14T03:42:58;7.40;98.00
4505;DHT22;2265;48.794;9.520;2023-12-14T03:45:25;7.40;98.00
4505;DHT22;2265;48.794;9.520;2023-12-14T03:47:52;7.30;98.00
4505;DHT22;2265;48.794;9.520;2023-12-14T03:50:20;7.20;98.00
4505;DHT22;2265;48.794;9.520;2023-12-14T03:52:50;7.10;98.00
4505;DHT22;2265;48.794;9.520;2023-12-14T03:55:17;7.10;98.00
4505;DHT22;2265;48.794;9.520;2023-12-14T03:57:44;7.00;98.00
4505;DHT22;2265;48.794;9.520;2023-12-14T04:00:12;7.10;98.00
4505;DHT22;2265;48.794;9.520;2023-12-14T04:02:39;7.10;98.00
4505;DHT22;2265;48.794;9.520;2023-12-14T04:05:07;7.10;98.00
4505;DHT22;2265;48.794;9.520;2023-12-14T04:07:36;7.20;98.00
4505;DHT22;2265;48.794;9.520;2023-12-14T04:10:06;7.40;98.00
4505;DHT22;2265;48.794;9.520;2023-12-14T04:12:33;7.40;98.00
4505;DHT22;2265;48.794;9.520;2023-12-14T04:15:10;7.30;98.00
4505;DHT22;2265;48.794;9.520;2023-12-14T04:17:37;7.30;98.00
4505;DHT22;2265;48.794;9.520;2023-12-14T04:20:05;7.30;98.00
4505;DHT22;2265;48.794;9.520;2023-12-14T04:22:35;7.30;98.00
4505;DHT22;2265;48.794;9.520;2023-12-14T04:25:03;7.20;98.00
4505;DHT22;2265;48.794;9.520;2023-12-14T04:27:30;7.20;98.00
4505;DHT22;2265;48.794;9.520;2023-12-14T04:29:57;7.20;98.00
4505;DHT22;2265;48.794;9.520;2023-12-14T04:32:25;7.20;98.00
4505;DHT22;2265;48.794;9.520;2023-12-14T04:34:52;7.20;98.00
4505;DHT22;2265;48.794;9.520;2023-12-14T04:37:19;7.30;98.00
4505;DHT22;2265;48.794;9.520;2023-12-14T04:39:48;7.20;98.00
4505;DHT22;2265;48.794;9.520;2023-12-14T04:42:16;7.20;98.00
4505;DHT22;2265;48.794;9.520;2023-12-14T04:44:43;7.20;98.00
4505;DHT22;2265;48.794;9.520;2023-12-14T04:47:11;7.20;98.00
4505;DHT22;2265;48.794;9.520;2023-12-14T04:49:38;7.30;98.00
4505;DHT22;2265;48.794;9.520;2023-12-14T04:52:05;7.40;98.00
4505;DHT22;2265;48.794;9.520;2023-12-14T04:54:33;7.60;98.00
4505;DHT22;2265;48.794;9.520;2023-12-14T04:57:05;7.70;98.00
4505;DHT22;2265;48.794;9.520;2023-12-14T04:59:32;7.60;98.00
4505;DHT22;2265;48.794;9.520;2023-12-14T05:01:59;7.60;98.00
4505;DHT22;2265;48.794;9.520;2023-12-14T05:04:26;7.60;98.00
4505;DHT22;2265;48.794;9.520;2023-12-14T05:06:54;7.60;98.00
4505;DHT22;2265;48.794;9.520;2023-12-14T05:09:21;7.60;98.00
4505;DHT22;2265;48.794;9.520;2023-12-14T05:11:48;7.50;98.00
4505;DHT22;2265;48.794;9.520;2023-12-14T05:14:16;7.40;98.00
4505;DHT22;2265;48.794;9.520;2023-12-14T05:16:44;7.50;98.00
4505;DHT22;2265;48.794;9.520;2023-12-14T05:19:11;7.50;98.00
4505;DHT22;2265;48.794;9.520;2023-12-14T05:21:38;7.60;98.00
4505;DHT22;2265;48.794;9.520;2023-12-14T05:24:05;7.60;98.00
4505;DHT22;2265;48.794;9.520;2023-12-14T05:26:32;7.60;98.00
4505;DHT22;2265;48.794;9.520;2023-12-14T05:29:01;7.60;98.00
4505;DHT22;2265;48.794;9.520;2023-12-14T05:31:29;7.60;98.00
4505;DHT22;2265;48.794;9.520;2023-12-14T05:33:56;7.60;98.00
4505;DHT22;2265;48.794;9.520;2023-12-14T05:36:23;7.60;98.00
4505;DHT22;2265;48.794;9.520;2023-12-14T05:38:51;7.60;98.00
4505;DHT22;2265;48.794;9.520;2023-12-14T05:41:19;7.60;98.00
4505;DHT22;2265;48.794;9.520;2023-12-14T05:43:46;7.60;98.00
4505;DHT22;2265;48.794;9.520;2023-12-14T05:46:20;7.60;98.00
4505;DHT22;2265;48.794;9.520;2023-12-14T05:48:49;7.60;98.00
4505;DHT22;2265;48.794;9.520;2023-12-14T05:51:26;7.50;98.00
4505;DHT22;2265;48.794;9.520;2023-12-14T05:53:53;7.50;98.00
4505;DHT22;2265;48.794;9.520;2023-12-14T05:56:20;7.40;98.00
4505;DHT22;2265;48.794;9.520;2023-12-14T05:58:47;7.50;98.00
4505;DHT22;2265;48.794;9.520;2023-12-14T06:01:16;7.50;98.00
4505;DHT22;2265;48.794;9.520;2023-12-14T06:03:44;7.50;98.00
4505;DHT22;2265;48.794;9.520;2023-12-14T06:06:13;7.50;98.00
4505;DHT22;2265;48.794;9.520;2023-12-14T06:08:40;7.60;98.00
4505;DHT22;2265;48.794;9.520;2023-12-14T06:11:08;7.60;98.00
4505;DHT22;2265;48.794;9.520;2023-12-14T06:13:35;7.60;98.00
4505;DHT22;2265;48.794;9.520;2023-12-14T06:16:04;7.60;98.00
4505;DHT22;2265;48.794;9.520;2023-12-14T06:18:32;7.60;98.00
4505;DHT22;2265;48.794;9.520;2023-12-14T06:20:59;7.60;98.00
4505;DHT22;2265;48.794;9.520;2023-12-14T06:23:28;7.50;98.00
4505;DHT22;2265;48.794;9.520;2023-12-14T06:25:55;7.50;98.00
4505;DHT22;2265;48.794;9.520;2023-12-14T06:28:22;7.50;98.00
4505;DHT22;2265;48.794;9.520;2023-12-14T06:30:49;7.40;98.00
4505;DHT22;2265;48.794;9.520;2023-12-14T06:33:16;7.40;98.00
4505;DHT22;2265;48.794;9.520;2023-12-14T06:35:43;7.60;98.00
4505;DHT22;2265;48.794;9.520;2023-12-14T06:38:10;7.70;98.00
4505;DHT22;2265;48.794;9.520;2023-12-14T06:40:42;7.80;98.00
4505;DHT22;2265;48.794;9.520;2023-12-14T06:43:09;7.80;98.00
4505;DHT22;2265;48.794;9.520;2023-12-14T06:45:37;7.80;98.00
4505;DHT22;2265;48.794;9.520;2023-12-14T06:48:04;7.70;98.00
4505;DHT22;2265;48.794;9.520;2023-12-14T06:50:32;7.60;98.00
4505;DHT22;2265;48.794;9.520;2023-12-14T06:52:59;7.60;98.00
4505;DHT22;2265;48.794;9.520;2023-12-14T06:55:26;7.50;98.00
4505;DHT22;2265;48.794;9.520;2023-12-14T06:57:54;7.40;98.00
4505;DHT22;2265;48.794;9.520;2023-12-14T07:00:21;7.40;98.00
4505;DHT22;2265;48.794;9.520;2023-12-14T07:02:49;7.40;98.00
4505;DHT22;2265;48.794;9.520;2023-12-14T07:05:16;7.40;98.00
4505;DHT22;2265;48.794;9.520;2023-12-14T07:07:43;7.40;98.00
4505;DHT22;2265;48.794;9.520;2023-12-14T07:10:10;7.50;98.00
4505;DHT22;2265;48.794;9.520;2023-12-14T07:12:37;7.50;98.00
4505;DHT22;2265;48.794;9.520;2023-12-14T07:15:06;7.50;98.00
4505;DHT22;2265;48.794;9.520;2023-12-14T07:17:34;7.50;98.00
4505;DHT22;2265;48.794;9.520;2023-12-14T07:20:01;7.50;98.00
4505;DHT22;2265;48.794;9.520;2023-12-14T07:22:28;7.60;98.00
4505;DHT22;2265;48.794;9.520;2023-12-14T07:24:55;7.50;98.00
4505;DHT22;2265;48.794;9.520;2023-12-14T07:27:22;7.60;98.00
4505;DHT22;2265;48.794;9.520;2023-12-14T07:29:53;7.50;98.00
4505;DHT22;2265;48.794;9.520;2023-12-14T07:32:22;7.50;98.00
4505;DHT22;2265;48.794;9.520;2023-12-14T07:34:49;7.50;98.00
4505;DHT22;2265;48.794;9.520;2023-12-14T07:37:16;7.60;98.00
4505;DHT22;2265;48.794;9.520;2023-12-14T07:39:43;7.60;98.00
4505;DHT22;2265;48.794;9.520;2023-12-14T07:42:10;7.60;98.00
4505;DHT22;2265;48.794;9.520;2023-12-14T07:44:45;7.60;98.00
4505;DHT22;2265;48.794;9.520;2023-12-14T07:47:12;7.60;98.00
4505;DHT22;2265;48.794;9.520;2023-12-14T07:49:40;7.60;98.00
4505;DHT22;2265;48.794;9.520;2023-12-14T07:52:09;7.60;98.00
4505;DHT22;2265;48.794;9.520;2023-12-14T07:54:36;7.60;98.00
4505;DHT22;2265;48.794;9.520;2023-12-14T07:57:03;7.60;98.00
4505;DHT22;2265;48.794;9.520;2023-12-14T07:59:31;7.60;98.00
4505;DHT22;2265;48.794;9.520;2023-12-14T08:01:58;7.60;98.00
4505;DHT22;2265;48.794;9.520;2023-12-14T08:04:25;7.60;98.00
4505;DHT22;2265;48.794;9.520;2023-12-14T08:06:53;7.50;98.00
4505;DHT22;2265;48.794;9.520;2023-12-14T08:09:22;7.60;98.00
4505;DHT22;2265;48.794;9.520;2023-12-14T08:11:49;7.60;98.00
4505;DHT22;2265;48.794;9.520;2023-12-14T08:14:18;7.60;98.00
4505;DHT22;2265;48.794;9.520;2023-12-14T08:16:45;7.60;98.00
4505;DHT22;2265;48.794;9.520;2023-12-14T08:19:12;7.70;98.00
4505;DHT22;2265;48.794;9.520;2023-12-14T08:21:39;7.70;98.00
4505;DHT22;2265;48.794;9.520;2023-12-14T08:24:08;7.80;98.00
4505;DHT22;2265;48.794;9.520;2023-12-14T08:26:35;7.90;98.00
4505;DHT22;2265;48.794;9.520;2023-12-14T08:29:02;8.00;98.00
4505;DHT22;2265;48.794;9.520;2023-12-14T08:31:30;8.00;98.00
4505;DHT22;2265;48.794;9.520;2023-12-14T08:33:57;8.00;98.00
4505;DHT22;2265;48.794;9.520;2023-12-14T08:36:24;8.10;98.00
4505;DHT22;2265;48.794;9.520;2023-12-14T08:38:51;8.10;98.00
4505;DHT22;2265;48.794;9.520;2023-12-14T08:41:20;8.10;98.00
4505;DHT22;2265;48.794;9.520;2023-12-14T08:43:47;8.70;98.00
4505;DHT22;2265;48.794;9.520;2023-12-14T08:46:14;9.90;98.00
4505;DHT22;2265;48.794;9.520;2023-12-14T08:48:41;10.60;98.00
4505;DHT22;2265;48.794;9.520;2023-12-14T08:51:08;10.70;98.00
4505;DHT22;2265;48.794;9.520;2023-12-14T08:53:35;10.60;98.00
4505;DHT22;2265;48.794;9.520;2023-12-14T08:56:03;10.40;98.00
4505;DHT22;2265;48.794;9.520;2023-12-14T08:58:31;10.10;98.00
4505;DHT22;2265;48.794;9.520;2023-12-14T09:00:59;10.00;98.00
4505;DHT22;2265;48.794;9.520;2023-12-14T09:03:26;9.90;98.00
4505;DHT22;2265;48.794;9.520;2023-12-14T09:05:53;9.80;98.00
4505;DHT22;2265;48.794;9.520;2023-12-14T09:08:20;9.70;98.00
4505;DHT22;2265;48.794;9.520;2023-12-14T09:10:47;9.60;98.00
4505;DHT22;2265;48.794;9.520;2023-12-14T09:13:14;9.60;98.00
4505;DHT22;2265;48.794;9.520;2023-12-14T09:15:42;9.60;98.00
4505;DHT22;2265;48.794;9.520;2023-12-14T09:18:20;9.60;98.00
4505;DHT22;2265;48.794;9.520;2023-12-14T09:20:56;9.60;98.00
4505;DHT22;2265;48.794;9.520;2023-12-14T09:23:23;9.50;98.00
4505;DHT22;2265;48.794;9.520;2023-12-14T09:25:50;9.50;98.00
4505;DHT22;2265;48.794;9.520;2023-12-14T09:28:17;9.60;98.00
4505;DHT22;2265;48.794;9.520;2023-12-14T09:30:45;9.60;98.00
4505;DHT22;2265;48.794;9.520;2023-12-14T09:33:13;9.50;98.00
4505;DHT22;2265;48.794;9.520;2023-12-14T09:35:40;9.40;98.00
4505;DHT22;2265;48.794;9.520;2023-12-14T09:38:08;9.40;98.00
4505;DHT22;2265;48.794;9.520;2023-12-14T09:40:35;9.50;98.00
4505;DHT22;2265;48.794;9.520;2023-12-14T09:43:02;9.60;98.00
4505;DHT22;2265;48.794;9.520;2023-12-14T09:45:29;9.60;98.00
4505;DHT22;2265;48.794;9.520;2023-12-14T09:48:00;9.70;98.00
4505;DHT22;2265;48.794;9.520;2023-12-14T09:50:27;9.60;98.00
4505;DHT22;2265;48.794;9.520;2023-12-14T09:52:56;9.50;98.00
4505;DHT22;2265;48.794;9.520;2023-12-14T09:55:23;9.30;98.00
4505;DHT22;2265;48.794;9.520;2023-12-14T09:57:50;9.10;98.00
4505;DHT22;2265;48.794;9.520;2023-12-14T10:00:32;9.10;98.00
4505;DHT22;2265;48.794;9.520;2023-12-14T10:03:18;9.00;98.00
4505;DHT22;2265;48.794;9.520;2023-12-14T10:05:45;9.00;98.00
4505;DHT22;2265;48.794;9.520;2023-12-14T10:08:17;9.00;98.00
4505;DHT22;2265;48.794;9.520;2023-12-14T10:10:47;9.00;98.00
4505;DHT22;2265;48.794;9.520;2023-12-14T10:13:16;9.00;98.00
4505;DHT22;2265;48.794;9.520;2023-12-14T10:15:45;8.90;98.00
4505;DHT22;2265;48.794;9.520;2023-12-14T10:18:21;8.90;98.00
4505;DHT22;2265;48.794;9.520;2023-12-14T10:20:49;9.00;98.00
4505;DHT22;2265;48.794;9.520;2023-12-14T10:23:18;9.00;98.00
4505;DHT22;2265;48.794;9.520;2023-12-14T10:25:45;9.00;98.00
4505;DHT22;2265;48.794;9.520;2023-12-14T10:28:13;9.10;98.00
4505;DHT22;2265;48.794;9.520;2023-12-14T10:30:40;9.10;98.00
4505;DHT22;2265;48.794;9.520;2023-12-14T10:33:08;9.10;98.00
4505;DHT22;2265;48.794;9.520;2023-12-14T10:35:37;9.30;98.00
4505;DHT22;2265;48.794;9.520;2023-12-14T10:38:05;9.40;98.00
4505;DHT22;2265;48.794;9.520;2023-12-14T10:40:35;9.40;98.00
4505;DHT22;2265;48.794;9.520;2023-12-14T10:43:09;9.30;98.00
4505;DHT22;2265;48.794;9.520;2023-12-14T10:45:38;9.50;98.00
4505;DHT22;2265;48.794;9.520;2023-12-14T10:48:06;9.60;98.00
4505;DHT22;2265;48.794;9.520;2023-12-14T10:50:37;9.60;98.00
4505;DHT22;2265;48.794;9.520;2023-12-14T10:53:05;9.60;98.00
4505;DHT22;2265;48.794;9.520;2023-12-14T10:55:37;9.60;98.00
4505;DHT22;2265;48.794;9.520;2023-12-14T10:58:04;9.60;98.00
4505;DHT22;2265;48.794;9.520;2023-12-14T11:00:32;9.60;98.00
4505;DHT22;2265;48.794;9.520;2023-12-14T11:03:00;9.60;98.00
4505;DHT22;2265;48.794;9.520;2023-12-14T11:05:27;9.50;98.00
4505;DHT22;2265;48.794;9.520;2023-12-14T11:08:00;9.60;98.00
4505;DHT22;2265;48.794;9.520;2023-12-14T11:10:37;9.60;98.00
4505;DHT22;2265;48.794;9.520;2023-12-14T11:13:07;9.60;98.00
4505;DHT22;2265;48.794;9.520;2023-12-14T11:15:37;9.60;98.00
4505;DHT22;2265;48.794;9.520;2023-12-14T11:18:25;9.60;98.00
4505;DHT22;2265;48.794;9.520;2023-12-14T11:21:06;9.50;98.00
4505;DHT22;2265;48.794;9.520;2023-12-14T11:23:37;9.50;98.00
4505;DHT22;2265;48.794;9.520;2023-12-14T11:26:08;9.40;98.00
4505;DHT22;2265;48.794;9.520;2023-12-14T11:28:37;9.50;98.00
4505;DHT22;2265;48.794;9.520;2023-12-14T11:31:04;9.60;98.00
4505;DHT22;2265;48.794;9.520;2023-12-14T11:33:33;9.60;98.00
4505;DHT22;2265;48.794;9.520;2023-12-14T11:36:01;9.70;98.00
4505;DHT22;2265;48.794;9.520;2023-12-14T11:38:30;9.80;98.00
4505;DHT22;2265;48.794;9.520;2023-12-14T11:40:59;9.70;98.00
4505;DHT22;2265;48.794;9.520;2023-12-14T11:43:26;9.80;98.00
4505;DHT22;2265;48.794;9.520;2023-12-14T11:45:54;9.80;98.00
4505;DHT22;2265;48.794;9.520;2023-12-14T11:50:51;9.60;98.00
4505;DHT22;2265;48.794;9.520;2023-12-14T11:53:18;9.70;98.00
4505;DHT22;2265;48.794;9.520;2023-12-14T11:55:45;9.70;98.00
4505;DHT22;2265;48.794;9.520;2023-12-14T11:58:16;9.70;98.00
4505;DHT22;2265;48.794;9.520;2023-12-14T12:00:43;9.80;98.00
4505;DHT22;2265;48.794;9.520;2023-12-14T12:03:13;9.80;98.00
4505;DHT22;2265;48.794;9.520;2023-12-14T12:05:42;9.70;98.00
4505;DHT22;2265;48.794;9.520;2023-12-14T12:08:10;9.70;98.00
4505;DHT22;2265;48.794;9.520;2023-12-14T12:10:38;9.70;98.00
4505;DHT22;2265;48.794;9.520;2023-12-14T12:13:07;9.70;98.00
4505;DHT22;2265;48.794;9.520;2023-12-14T12:15:38;9.80;98.00
4505;DHT22;2265;48.794;9.520;2023-12-14T12:18:06;9.70;98.00
4505;DHT22;2265;48.794;9.520;2023-12-14T12:20:34;9.70;98.00
4505;DHT22;2265;48.794;9.520;2023-12-14T12:23:02;9.70;98.00
4505;DHT22;2265;48.794;9.520;2023-12-14T12:25:29;9.70;98.00
4505;DHT22;2265;48.794;9.520;2023-12-14T12:27:58;9.80;98.00
4505;DHT22;2265;48.794;9.520;2023-12-14T12:30:25;9.90;98.00
4505;DHT22;2265;48.794;9.520;2023-12-14T12:32:54;9.80;98.00
4505;DHT22;2265;48.794;9.520;2023-12-14T12:35:22;9.70;98.00
4505;DHT22;2265;48.794;9.520;2023-12-14T12:37:49;9.70;98.00
4505;DHT22;2265;48.794;9.520;2023-12-14T12:40:20;9.70;98.00
4505;DHT22;2265;48.794;9.520;2023-12-14T12:42:48;9.80;98.00
4505;DHT22;2265;48.794;9.520;2023-12-14T12:45:16;9.90;98.00
4505;DHT22;2265;48.794;9.520;2023-12-14T12:47:44;9.90;98.00
4505;DHT22;2265;48.794;9.520;2023-12-14T12:50:14;9.80;98.00
4505;DHT22;2265;48.794;9.520;2023-12-14T12:52:41;9.70;98.00
4505;DHT22;2265;48.794;9.520;2023-12-14T12:55:09;9.70;98.00
4505;DHT22;2265;48.794;9.520;2023-12-14T12:57:37;9.70;98.00
4505;DHT22;2265;48.794;9.520;2023-12-14T13:00:05;9.60;98.00
4505;DHT22;2265;48.794;9.520;2023-12-14T13:02:36;9.60;98.00
4505;DHT22;2265;48.794;9.520;2023-12-14T13:05:05;9.70;98.00
4505;DHT22;2265;48.794;9.520;2023-12-14T13:07:34;9.80;98.00
4505;DHT22;2265;48.794;9.520;2023-12-14T13:10:02;9.90;98.00
4505;DHT22;2265;48.794;9.520;2023-12-14T13:12:30;9.90;98.00
4505;DHT22;2265;48.794;9.520;2023-12-14T13:14:57;10.00;98.00
4505;DHT22;2265;48.794;9.520;2023-12-14T13:17:24;10.00;98.00
4505;DHT22;2265;48.794;9.520;2023-12-14T13:19:57;9.90;98.00
4505;DHT22;2265;48.794;9.520;2023-12-14T13:49:44;9.30;98.00
4505;DHT22;2265;48.794;9.520;2023-12-14T13:52:14;9.10;98.00
4505;DHT22;2265;48.794;9.520;2023-12-14T13:54:43;9.20;98.00
4505;DHT22;2265;48.794;9.520;2023-12-14T13:57:19;9.00;98.00
4505;DHT22;2265;48.794;9.520;2023-12-14T14:00:22;9.00;98.00
4505;DHT22;2265;48.794;9.520;2023-12-14T14:02:50;8.90;98.00
4505;DHT22;2265;48.794;9.520;2023-12-14T14:05:19;8.80;98.00
4505;DHT22;2265;48.794;9.520;2023-12-14T14:07:46;8.80;98.00
4505;DHT22;2265;48.794;9.520;2023-12-14T14:10:14;8.60;98.00
4505;DHT22;2265;48.794;9.520;2023-12-14T14:12:44;8.50;98.00
4505;DHT22;2265;48.794;9.520;2023-12-14T14:15:12;8.60;98.00
4505;DHT22;2265;48.794;9.520;2023-12-14T14:17:39;8.50;98.00
4505;DHT22;2265;48.794;9.520;2023-12-14T14:20:07;8.50;98.00
4505;DHT22;2265;48.794;9.520;2023-12-14T14:22:35;8.40;98.00
4505;DHT22;2265;48.794;9.520;2023-12-14T14:25:03;8.40;98.00
4505;DHT22;2265;48.794;9.520;2023-12-14T14:27:34;8.50;98.00
4505;DHT22;2265;48.794;9.520;2023-12-14T14:30:03;8.50;98.00
4505;DHT22;2265;48.794;9.520;2023-12-14T14:32:31;8.70;98.00
4505;DHT22;2265;48.794;9.520;2023-12-14T14:34:59;8.70;98.00
4505;DHT22;2265;48.794;9.520;2023-12-14T14:37:26;8.70;98.00
4505;DHT22;2265;48.794;9.520;2023-12-14T14:39:55;8.70;98.00
4505;DHT22;2265;48.794;9.520;2023-12-14T14:42:22;8.70;98.00
4505;DHT22;2265;48.794;9.520;2023-12-14T14:44:49;8.50;98.00
4505;DHT22;2265;48.794;9.520;2023-12-14T14:47:18;8.50;98.00
4505;DHT22;2265;48.794;9.520;2023-12-14T14:49:47;8.30;98.00
4505;DHT22;2265;48.794;9.520;2023-12-14T14:52:14;8.30;98.00
4505;DHT22;2265;48.794;9.520;2023-12-14T14:54:42;8.30;98.00
4505;DHT22;2265;48.794;9.520;2023-12-14T14:57:12;8.30;98.00
4505;DHT22;2265;48.794;9.520;2023-12-14T14:59:39;8.30;98.00
4505;DHT22;2265;48.794;9.520;2023-12-14T15:02:06;8.30;98.00
4505;DHT22;2265;48.794;9.520;2023-12-14T15:04:33;8.30;98.00
4505;DHT22;2265;48.794;9.520;2023-12-14T15:07:00;8.30;98.00
4505;DHT22;2265;48.794;9.520;2023-12-14T15:09:28;8.40;98.00
4505;DHT22;2265;48.794;9.520;2023-12-14T15:11:55;8.30;98.00
4505;DHT22;2265;48.794;9.520;2023-12-14T15:14:23;8.30;98.00
4505;DHT22;2265;48.794;9.520;2023-12-14T15:16:52;8.30;98.00
4505;DHT22;2265;48.794;9.520;2023-12-14T15:19:20;8.30;98.00
4505;DHT22;2265;48.794;9.520;2023-12-14T15:21:47;8.30;98.00
4505;DHT22;2265;48.794;9.520;2023-12-14T15:24:14;8.40;98.00
4505;DHT22;2265;48.794;9.520;2023-12-14T15:26:41;8.60;98.00
4505;DHT22;2265;48.794;9.520;2023-12-14T15:29:08;8.70;98.00
4505;DHT22;2265;48.794;9.520;2023-12-14T15:31:36;8.80;98.00
4505;DHT22;2265;48.794;9.520;2023-12-14T15:34:04;8.70;98.00
4505;DHT22;2265;48.794;9.520;2023-12-14T15:36:32;8.60;98.00
4505;DHT22;2265;48.794;9.520;2023-12-14T15:39:00;8.70;98.00
4505;DHT22;2265;48.794;9.520;2023-12-14T15:41:27;8.80;98.00
4505;DHT22;2265;48.794;9.520;2023-12-14T15:43:54;8.80;98.00
4505;DHT22;2265;48.794;9.520;2023-12-14T15:46:21;8.60;98.00
4505;DHT22;2265;48.794;9.520;2023-12-14T15:48:50;8.40;98.00
4505;DHT22;2265;48.794;9.520;2023-12-14T15:51:17;8.30;98.00
4505;DHT22;2265;48.794;9.520;2023-12-14T15:53:44;8.20;98.00
4505;DHT22;2265;48.794;9.520;2023-12-14T15:56:11;8.20;98.00
4505;DHT22;2265;48.794;9.520;2023-12-14T15:58:38;8.20;98.00
4505;DHT22;2265;48.794;9.520;2023-12-14T16:01:05;8.30;98.00
4505;DHT22;2265;48.794;9.520;2023-12-14T16:03:32;8.20;98.00
4505;DHT22;2265;48.794;9.520;2023-12-14T16:06:01;8.30;98.00
4505;DHT22;2265;48.794;9.520;2023-12-14T16:08:28;8.30;98.00
4505;DHT22;2265;48.794;9.520;2023-12-14T16:10:55;8.20;98.00
4505;DHT22;2265;48.794;9.520;2023-12-14T16:13:23;8.20;98.00
4505;DHT22;2265;48.794;9.520;2023-12-14T16:15:50;8.20;98.00
4505;DHT22;2265;48.794;9.520;2023-12-14T16:18:17;8.30;98.00
4505;DHT22;2265;48.794;9.520;2023-12-14T16:20:45;8.20;98.00
4505;DHT22;2265;48.794;9.520;2023-12-14T16:23:14;8.20;98.00
4505;DHT22;2265;48.794;9.520;2023-12-14T16:25:42;8.20;98.00
4505;DHT22;2265;48.794;9.520;2023-12-14T16:28:09;8.10;98.00
4505;DHT22;2265;48.794;9.520;2023-12-14T16:30:36;8.20;98.00
4505;DHT22;2265;48.794;9.520;2023-12-14T16:33:03;8.30;98.00
4505;DHT22;2265;48.794;9.520;2023-12-14T16:35:31;8.30;98.00
4505;DHT22;2265;48.794;9.520;2023-12-14T16:37:59;8.40;98.00
4505;DHT22;2265;48.794;9.520;2023-12-14T16:40:27;8.30;98.00
4505;DHT22;2265;48.794;9.520;2023-12-14T16:42:55;8.30;98.00
4505;DHT22;2265;48.794;9.520;2023-12-14T16:45:24;8.20;98.00
4505;DHT22;2265;48.794;9.520;2023-12-14T16:47:51;8.10;98.00
4505;DHT22;2265;48.794;9.520;2023-12-14T16:50:18;8.30;98.00
4505;DHT22;2265;48.794;9.520;2023-12-14T16:52:45;8.30;98.00